createdAt,value
2018-04-01T00:02:26.325Z,99.90
2018-04-01T00:04:52.553Z,99.90
2018-04-01T00:07:18.737Z,99.90
2018-04-01T00:09:45.676Z,99.90
2018-04-01T00:12:15.056Z,99.90
2018-04-01T00:14:41.266Z,99.90
2018-04-01T00:17:07.492Z,99.90
2018-04-01T00:19:33.698Z,99.90
2018-04-01T00:22:00.678Z,99.90
2018-04-01T00:24:27.630Z,99.90
2018-04-01T00:26:54.566Z,99.90
2018-04-01T00:29:20.769Z,99.90
2018-04-01T00:31:46.991Z,99.90
2018-04-01T00:34:13.203Z,99.90
2018-04-01T00:36:39.416Z,99.90
2018-04-01T00:39:09.093Z,99.90
2018-04-01T00:41:35.302Z,99.90
2018-04-01T00:44:01.470Z,99.90
2018-04-01T00:46:27.666Z,99.90
2018-04-01T00:48:53.897Z,99.90
2018-04-01T00:51:20.133Z,99.90
2018-04-01T00:53:46.347Z,99.70
2018-04-01T00:56:13.307Z,99.50
2018-04-01T00:58:40.245Z,99.30
2018-04-01T01:01:06.441Z,99.30
2018-04-01T01:03:32.631Z,99.30
2018-04-01T01:05:58.823Z,99.30
2018-04-01T01:08:25.773Z,99.00
2018-04-01T01:10:52.090Z,99.00
2018-04-01T01:13:18.285Z,99.00
2018-04-01T01:15:44.466Z,99.00
2018-04-01T01:18:10.666Z,99.00
2018-04-01T01:20:36.864Z,99.00
2018-04-01T01:23:03.052Z,99.00
2018-04-01T01:25:29.254Z,98.90
2018-04-01T01:27:55.458Z,98.90
2018-04-01T01:30:21.650Z,98.90
2018-04-01T01:32:48.584Z,98.90
2018-04-01T01:35:14.807Z,98.90
2018-04-01T01:37:41.025Z,98.90
2018-04-01T01:40:07.972Z,98.90
2018-04-01T01:42:34.147Z,98.80
2018-04-01T01:45:03.897Z,98.90
2018-04-01T01:47:30.099Z,98.80
2018-04-01T01:49:56.301Z,98.80
2018-04-01T01:52:22.523Z,98.80
2018-04-01T01:54:53.217Z,98.90
2018-04-01T01:57:19.438Z,98.80
2018-04-01T01:59:45.657Z,98.90
2018-04-01T02:02:11.847Z,98.80
2018-04-01T02:04:38.058Z,98.70
2018-04-01T02:07:05.030Z,98.60
2018-04-01T02:09:31.305Z,98.60
2018-04-01T02:11:57.560Z,98.60
2018-04-01T02:14:23.778Z,98.50
2018-04-01T02:16:49.969Z,98.50
2018-04-01T02:19:16.214Z,98.70
2018-04-01T02:21:42.555Z,98.50
2018-04-01T02:24:09.216Z,98.50
2018-04-01T02:26:36.156Z,98.50
2018-04-01T02:29:03.120Z,98.50
2018-04-01T02:31:30.147Z,98.40
2018-04-01T02:33:56.274Z,98.80
2018-04-01T02:36:23.834Z,98.40
2018-04-01T02:38:50.039Z,98.50
2018-04-01T02:41:17.024Z,98.50
2018-04-01T02:43:44.256Z,98.50
2018-04-01T02:46:10.501Z,98.50
2018-04-01T02:48:36.718Z,98.50
2018-04-01T02:51:02.928Z,98.50
2018-04-01T02:53:29.144Z,98.50
2018-04-01T02:55:56.097Z,98.60
2018-04-01T02:58:23.037Z,98.30
2018-04-01T03:00:49.273Z,98.50
2018-04-01T03:03:15.473Z,98.50
2018-04-01T03:05:42.425Z,98.50
2018-04-01T03:08:09.414Z,98.50
2018-04-01T03:10:35.631Z,98.50
2018-04-01T03:13:01.908Z,98.50
2018-04-01T03:15:28.850Z,98.60
2018-04-01T03:17:55.056Z,98.60
2018-04-01T03:20:21.296Z,98.60
2018-04-01T03:22:47.542Z,98.60
2018-04-01T03:25:14.488Z,98.60
2018-04-01T03:27:40.697Z,98.60
2018-04-01T03:30:06.918Z,99.00
2018-04-01T03:32:33.122Z,98.60
2018-04-01T03:35:00.116Z,99.00
2018-04-01T03:37:27.090Z,98.60
2018-04-01T03:39:54.168Z,98.60
2018-04-01T03:42:21.131Z,98.60
2018-04-01T03:44:48.087Z,98.50
2018-04-01T03:47:15.038Z,98.50
2018-04-01T03:49:41.241Z,98.50
2018-04-01T03:52:07.508Z,98.50
2018-04-01T03:54:33.718Z,98.50
2018-04-01T03:57:00.797Z,98.60
2018-04-01T03:59:27.003Z,98.60
2018-04-01T04:01:53.211Z,98.60
2018-04-01T04:04:19.396Z,98.60
2018-04-01T04:06:45.666Z,98.70
2018-04-01T04:09:11.870Z,98.60
2018-04-01T04:11:38.155Z,98.60
2018-04-01T04:14:04.352Z,98.60
2018-04-01T04:16:31.288Z,98.50
2018-04-01T04:18:57.490Z,98.50
2018-04-01T04:21:23.720Z,98.40
2018-04-01T04:23:50.681Z,98.30
2018-04-01T04:26:17.659Z,98.20
2018-04-01T04:28:43.878Z,98.20
2018-04-01T04:31:11.556Z,98.10
2018-04-01T04:33:37.770Z,98.10
2018-04-01T04:36:03.969Z,98.10
2018-04-01T04:38:30.161Z,98.10
2018-04-01T04:40:56.360Z,98.10
2018-04-01T04:43:23.287Z,98.40
2018-04-01T04:45:49.481Z,98.60
2018-04-01T04:48:16.928Z,98.70
2018-04-01T04:50:43.120Z,98.60
2018-04-01T04:53:10.058Z,98.40
2018-04-01T04:55:36.352Z,98.30
2018-04-01T04:58:03.323Z,98.70
2018-04-01T05:00:30.262Z,98.60
2018-04-01T05:02:56.470Z,98.60
2018-04-01T05:05:22.691Z,98.60
2018-04-01T05:07:48.880Z,98.60
2018-04-01T05:10:15.078Z,98.60
2018-04-01T05:12:42.030Z,98.50
2018-04-01T05:15:08.302Z,98.40
2018-04-01T05:17:35.251Z,98.40
2018-04-01T05:20:02.080Z,98.40
2018-04-01T05:22:28.342Z,98.40
2018-04-01T05:24:54.567Z,98.30
2018-04-01T05:27:20.769Z,98.40
2018-04-01T05:29:46.964Z,98.40
2018-04-01T05:32:13.335Z,98.30
2018-04-01T05:34:39.558Z,98.40
2018-04-01T05:37:05.808Z,98.80
2018-04-01T05:39:32.749Z,98.30
2018-04-01T05:41:58.932Z,98.30
2018-04-01T05:44:25.161Z,98.50
2018-04-01T05:46:52.146Z,99.00
2018-04-01T05:49:18.393Z,98.60
2018-04-01T05:51:45.341Z,98.60
2018-04-01T05:54:11.554Z,98.50
2018-04-01T05:56:37.790Z,98.50
2018-04-01T05:59:04.029Z,98.60
2018-04-01T06:01:30.226Z,98.50
2018-04-01T06:03:56.621Z,98.50
2018-04-01T06:06:22.833Z,98.40
2018-04-01T06:08:49.079Z,98.40
2018-04-01T06:11:15.387Z,98.40
2018-04-01T06:13:41.601Z,98.30
2018-04-01T06:16:07.835Z,98.10
2018-04-01T06:18:34.055Z,98.10
2018-04-01T06:21:00.268Z,98.20
2018-04-01T06:23:27.211Z,98.40
2018-04-01T06:25:53.403Z,98.40
2018-04-01T06:28:19.621Z,98.30
2018-04-01T06:31:50.214Z,98.30
2018-04-01T06:34:17.328Z,98.30
2018-04-01T06:36:43.524Z,98.30
2018-04-01T06:39:09.740Z,98.30
2018-04-01T06:41:35.990Z,98.00
2018-04-01T06:44:02.220Z,98.10
2018-04-01T06:46:28.937Z,98.00
2018-04-01T06:48:55.166Z,98.00
2018-04-01T06:51:22.043Z,98.00
2018-04-01T06:53:48.307Z,98.00
2018-04-01T06:56:14.539Z,98.00
2018-04-01T06:58:40.795Z,98.00
2018-04-01T07:01:07.013Z,98.10
2018-04-01T07:03:33.206Z,98.00
2018-04-01T07:05:59.432Z,98.00
2018-04-01T07:08:25.644Z,97.80
2018-04-01T07:10:52.620Z,97.80
2018-04-01T07:13:18.832Z,97.70
2018-04-01T07:15:45.065Z,97.50
2018-04-01T07:18:11.296Z,97.40
2018-04-01T07:20:37.527Z,97.10
2018-04-01T07:23:03.794Z,97.20
2018-04-01T07:25:30.130Z,97.00
2018-04-01T07:27:57.067Z,97.00
2018-04-01T07:30:23.246Z,96.90
2018-04-01T07:32:49.490Z,96.70
2018-04-01T07:35:16.417Z,96.60
2018-04-01T07:37:43.365Z,96.60
2018-04-01T07:40:09.601Z,96.70
2018-04-01T07:42:35.811Z,96.50
2018-04-01T07:45:03.585Z,96.50
2018-04-01T07:47:30.379Z,96.50
2018-04-01T07:49:56.605Z,96.40
2018-04-01T07:52:23.576Z,96.10
2018-04-01T07:54:49.773Z,96.40
2018-04-01T07:57:16.002Z,96.00
2018-04-01T07:59:43.215Z,95.80
2018-04-01T08:02:09.415Z,95.80
2018-04-01T08:04:36.371Z,95.20
2018-04-01T08:07:03.343Z,95.40
2018-04-01T08:09:29.552Z,95.10
2018-04-01T08:11:55.772Z,95.10
2018-04-01T08:14:21.980Z,94.70
2018-04-01T08:16:48.958Z,94.20
2018-04-01T08:19:15.252Z,94.20
2018-04-01T08:21:41.478Z,94.00
2018-04-01T08:24:08.900Z,93.70
2018-04-01T08:26:35.215Z,93.60
2018-04-01T08:29:01.428Z,93.20
2018-04-01T08:31:27.651Z,93.00
2018-04-01T08:33:54.019Z,92.70
2018-04-01T08:36:20.431Z,92.80
2018-04-01T08:38:46.683Z,92.40
2018-04-01T08:41:12.904Z,92.40
2018-04-01T08:43:39.179Z,92.90
2018-04-01T08:46:05.415Z,92.30
2018-04-01T08:48:32.370Z,91.80
2018-04-01T08:50:59.318Z,91.70
2018-04-01T08:53:25.504Z,91.50
2018-04-01T08:55:52.480Z,91.60
2018-04-01T08:58:19.560Z,91.80
2018-04-01T09:00:45.763Z,91.70
2018-04-01T09:03:11.996Z,91.70
2018-04-01T09:05:39.022Z,91.60
2018-04-01T09:08:06.090Z,91.50
2018-04-01T09:10:32.375Z,91.50
2018-04-01T09:12:58.595Z,91.50
2018-04-01T09:15:24.828Z,90.80
2018-04-01T09:17:51.059Z,89.80
2018-04-01T09:20:17.301Z,88.90
2018-04-01T09:22:43.600Z,88.90
2018-04-01T09:25:10.553Z,89.40
2018-04-01T09:27:37.607Z,89.10
2018-04-01T09:30:03.993Z,89.10
2018-04-01T09:32:33.519Z,88.20
2018-04-01T09:35:00.465Z,87.50
2018-04-01T09:37:26.877Z,87.30
2018-04-01T09:39:53.093Z,87.50
2018-04-01T09:42:19.312Z,88.30
2018-04-01T09:44:46.632Z,88.20
2018-04-01T09:47:12.835Z,88.70
2018-04-01T09:49:39.103Z,87.20
2018-04-01T09:52:06.078Z,88.20
2018-04-01T09:54:37.253Z,86.10
2018-04-01T09:57:03.604Z,86.10
2018-04-01T09:59:30.674Z,85.90
2018-04-01T10:01:59.730Z,85.60
2018-04-01T10:04:26.349Z,85.60
2018-04-01T10:06:53.608Z,85.30
2018-04-01T10:09:21.021Z,85.70
2018-04-01T10:11:47.558Z,85.70
2018-04-01T10:14:13.978Z,84.40
2018-04-01T10:16:40.407Z,83.90
2018-04-01T10:19:06.927Z,84.10
2018-04-01T10:21:34.201Z,83.10
2018-04-01T10:24:01.386Z,83.70
2018-04-01T10:26:27.844Z,83.70
2018-04-01T10:28:57.845Z,83.50
2018-04-01T10:31:48.494Z,83.70
2018-04-01T10:34:15.497Z,84.10
2018-04-01T10:36:41.994Z,84.00
2018-04-01T10:39:12.113Z,83.50
2018-04-01T10:41:39.286Z,84.80
2018-04-01T10:44:06.983Z,84.60
2018-04-01T10:46:33.450Z,84.50
2018-04-01T10:48:59.885Z,84.30
2018-04-01T10:51:27.074Z,82.40
2018-04-01T10:53:56.205Z,82.40
2018-04-01T10:56:22.533Z,80.50
2018-04-01T10:58:48.824Z,79.50
2018-04-01T11:01:15.050Z,79.60
2018-04-01T11:03:41.392Z,79.90
2018-04-01T11:06:07.746Z,81.30
2018-04-01T11:08:33.947Z,81.90
2018-04-01T11:11:00.180Z,82.90
2018-04-01T11:13:26.405Z,82.40
2018-04-01T11:15:52.755Z,82.50
2018-04-01T11:18:19.529Z,82.50
2018-04-01T11:20:45.867Z,83.20
2018-04-01T11:23:12.137Z,84.20
2018-04-01T11:25:38.391Z,83.80
2018-04-01T11:28:04.624Z,83.40
2018-04-01T11:30:30.928Z,83.20
2018-04-01T11:32:57.285Z,83.10
2018-04-01T11:35:23.685Z,83.60
2018-04-01T11:37:51.061Z,84.10
2018-04-01T11:40:19.869Z,85.00
2018-04-01T11:42:47.410Z,84.80
2018-04-01T11:45:14.726Z,85.00
2018-04-01T11:47:41.550Z,85.10
2018-04-01T11:50:07.800Z,84.00
2018-04-01T11:52:34.400Z,83.90
2018-04-01T11:55:01.384Z,84.40
2018-04-01T11:57:27.725Z,84.40
2018-04-01T11:59:54.020Z,85.00
2018-04-01T12:02:20.229Z,85.30
2018-04-01T12:04:46.454Z,84.70
2018-04-01T12:07:12.728Z,85.00
2018-04-01T12:09:39.190Z,85.60
2018-04-01T12:12:05.651Z,85.00
2018-04-01T12:14:32.999Z,85.30
2018-04-01T12:17:00.228Z,85.70
2018-04-01T12:19:27.482Z,85.70
2018-04-01T12:21:54.132Z,86.30
2018-04-01T12:24:20.406Z,86.80
2018-04-01T12:26:47.038Z,87.10
2018-04-01T12:29:15.953Z,88.50
2018-04-01T12:31:42.278Z,87.60
2018-04-01T12:34:09.283Z,87.80
2018-04-01T12:36:35.523Z,87.60
2018-04-01T12:39:02.392Z,86.50
2018-04-01T12:41:29.090Z,86.70
2018-04-01T12:43:55.564Z,87.20
2018-04-01T12:46:22.166Z,87.30
2018-04-01T12:48:48.621Z,87.10
2018-04-01T12:51:14.841Z,87.00
2018-04-01T12:53:41.074Z,86.70
2018-04-01T12:56:07.316Z,86.80
2018-04-01T12:58:33.631Z,86.90
2018-04-01T13:00:59.901Z,85.80
2018-04-01T13:03:26.202Z,85.20
2018-04-01T13:05:52.905Z,84.40
2018-04-01T13:08:20.992Z,83.40
2018-04-01T13:10:47.269Z,83.60
2018-04-01T13:13:13.535Z,83.60
2018-04-01T13:15:39.853Z,84.10
2018-04-01T13:18:06.113Z,84.00
2018-04-01T13:20:33.408Z,83.50
2018-04-01T13:23:02.079Z,83.40
2018-04-01T13:25:28.661Z,83.80
2018-04-01T13:27:56.020Z,83.90
2018-04-01T13:30:22.292Z,83.90
2018-04-01T13:32:48.519Z,83.50
2018-04-01T13:35:15.594Z,83.10
2018-04-01T13:37:41.838Z,83.00
2018-04-01T13:40:08.298Z,83.00
2018-04-01T13:42:34.560Z,82.80
2018-04-01T13:45:00.805Z,82.80
2018-04-01T13:47:27.151Z,83.20
2018-04-01T13:49:54.222Z,81.50
2018-04-01T13:52:20.916Z,81.50
2018-04-01T13:54:47.347Z,81.20
2018-04-01T13:57:13.623Z,81.80
2018-04-01T13:59:39.897Z,80.80
2018-04-01T14:02:06.881Z,81.20
2018-04-01T14:04:33.883Z,81.00
2018-04-01T14:07:00.828Z,80.10
2018-04-01T14:09:27.057Z,80.10
2018-04-01T14:11:53.353Z,79.90
2018-04-01T14:14:19.604Z,81.00
2018-04-01T14:16:46.531Z,80.30
2018-04-01T14:19:12.807Z,80.20
2018-04-01T14:21:43.629Z,79.70
2018-04-01T14:24:09.842Z,79.70
2018-04-01T14:26:36.096Z,79.60
2018-04-01T14:29:02.360Z,79.30
2018-04-01T14:31:28.612Z,79.60
2018-04-01T14:33:54.930Z,79.60
2018-04-01T14:36:22.383Z,78.70
2018-04-01T14:38:48.644Z,78.70
2018-04-01T14:41:14.890Z,77.30
2018-04-01T14:43:41.848Z,77.50
2018-04-01T14:46:08.912Z,76.60
2018-04-01T14:48:35.253Z,76.70
2018-04-01T14:51:01.473Z,76.00
2018-04-01T14:53:27.786Z,76.70
2018-04-01T14:55:58.450Z,75.80
2018-04-01T14:58:24.729Z,75.70
2018-04-01T15:00:51.715Z,76.20
2018-04-01T15:03:18.039Z,76.20
2018-04-01T15:05:44.291Z,76.30
2018-04-01T15:08:10.641Z,76.30
2018-04-01T15:10:36.927Z,77.10
2018-04-01T15:13:03.183Z,77.60
2018-04-01T15:15:30.380Z,76.70
2018-04-01T15:17:56.730Z,76.60
2018-04-01T15:20:23.044Z,76.00
2018-04-01T15:22:49.337Z,76.00
2018-04-01T15:25:16.756Z,77.30
2018-04-01T15:27:43.018Z,77.10
2018-04-01T15:30:09.320Z,78.00
2018-04-01T15:32:36.434Z,80.00
2018-04-01T15:35:03.011Z,80.00
2018-04-01T15:37:29.240Z,80.70
2018-04-01T15:39:55.634Z,81.50
2018-04-01T15:42:23.875Z,81.90
2018-04-01T15:44:50.113Z,81.90
2018-04-01T15:47:17.115Z,82.90
2018-04-01T15:49:43.361Z,82.90
2018-04-01T15:52:10.400Z,83.70
2018-04-01T15:54:36.597Z,83.70
2018-04-01T15:57:02.941Z,83.10
2018-04-01T15:59:30.436Z,83.40
2018-04-01T16:01:56.687Z,83.50
2018-04-01T16:04:22.986Z,84.10
2018-04-01T16:06:49.429Z,84.90
2018-04-01T16:09:22.790Z,85.40
2018-04-01T16:11:49.055Z,86.10
2018-04-01T16:14:15.304Z,87.20
2018-04-01T16:16:41.556Z,86.50
2018-04-01T16:19:07.913Z,86.70
2018-04-01T16:21:34.167Z,87.10
2018-04-01T16:24:00.489Z,87.60
2018-04-01T16:26:26.769Z,87.70
2018-04-01T16:28:53.212Z,88.00
2018-04-01T16:31:19.505Z,88.10
2018-04-01T16:33:46.045Z,88.90
2018-04-01T16:36:12.474Z,88.50
2018-04-01T16:38:38.890Z,88.70
2018-04-01T16:41:05.901Z,89.50
2018-04-01T16:43:33.278Z,89.50
2018-04-01T16:45:59.514Z,89.40
2018-04-01T16:48:26.525Z,90.20
2018-04-01T16:50:52.780Z,90.20
2018-04-01T16:53:19.063Z,90.30
2018-04-01T16:55:46.083Z,90.30
2018-04-01T16:58:12.426Z,90.20
2018-04-01T17:00:38.710Z,90.30
2018-04-01T17:03:05.724Z,90.60
2018-04-01T17:05:31.975Z,90.50
2018-04-01T17:07:59.102Z,90.80
2018-04-01T17:10:26.406Z,90.90
2018-04-01T17:12:53.206Z,90.80
2018-04-01T17:15:19.503Z,90.90
2018-04-01T17:17:46.471Z,90.90
2018-04-01T17:20:13.599Z,90.90
2018-04-01T17:22:40.028Z,90.70
2018-04-01T17:25:06.313Z,90.60
2018-04-01T17:27:32.618Z,90.50
2018-04-01T17:29:59.623Z,90.70
2018-04-01T17:32:26.520Z,90.70
2018-04-01T17:34:52.842Z,91.10
2018-04-01T17:37:19.829Z,90.50
2018-04-01T17:39:46.169Z,90.50
2018-04-01T17:42:12.525Z,90.60
2018-04-01T17:44:38.821Z,90.60
2018-04-01T17:47:05.334Z,90.60
2018-04-01T17:49:31.758Z,90.60
2018-04-01T17:51:58.106Z,90.50
2018-04-01T17:54:26.050Z,90.40
2018-04-01T17:56:52.497Z,90.40
2018-04-01T17:59:18.819Z,90.40
2018-04-01T18:01:45.842Z,90.60
2018-04-01T18:04:13.610Z,90.50
2018-04-01T18:06:40.187Z,90.50
2018-04-01T18:09:06.611Z,90.60
2018-04-01T18:11:33.199Z,90.60
2018-04-01T18:13:59.830Z,90.70
2018-04-01T18:16:26.390Z,91.10
2018-04-01T18:18:52.750Z,90.70
2018-04-01T18:21:19.437Z,90.70
2018-04-01T18:23:45.858Z,90.80
2018-04-01T18:26:12.255Z,90.60
2018-04-01T18:28:38.667Z,90.80
2018-04-01T18:31:05.737Z,90.50
2018-04-01T18:33:32.723Z,90.60
2018-04-01T18:35:59.017Z,90.60
2018-04-01T18:38:25.415Z,90.50
2018-04-01T18:40:52.735Z,90.10
2018-04-01T18:43:19.047Z,90.00
2018-04-01T18:45:45.400Z,90.10
2018-04-01T18:48:11.648Z,90.20
2018-04-01T18:50:37.985Z,90.30
2018-04-01T18:53:05.074Z,90.30
2018-04-01T18:55:32.122Z,90.30
2018-04-01T18:57:59.054Z,90.30
2018-04-01T19:00:25.364Z,90.30
2018-04-01T19:02:52.208Z,90.30
2018-04-01T19:05:18.473Z,90.30
2018-04-01T19:07:44.715Z,90.30
2018-04-01T19:10:11.085Z,90.30
2018-04-01T19:12:37.320Z,90.30
2018-04-01T19:15:04.291Z,90.80
2018-04-01T19:17:31.643Z,90.40
2018-04-01T19:19:58.241Z,90.40
2018-04-01T19:22:25.847Z,90.40
2018-04-01T19:24:53.201Z,90.30
2018-04-01T19:27:19.965Z,90.40
2018-04-01T19:29:47.367Z,90.50
2018-04-01T19:32:14.923Z,90.40
2018-04-01T19:34:43.758Z,90.40
2018-04-01T19:37:11.003Z,90.50
2018-04-01T19:39:38.144Z,90.50
2018-04-01T19:42:05.887Z,90.30
2018-04-01T19:44:32.384Z,90.50
2018-04-01T19:46:59.698Z,90.70
2018-04-01T19:49:26.285Z,91.00
2018-04-01T19:51:52.798Z,90.60
2018-04-01T19:54:20.029Z,90.60
2018-04-01T19:56:46.642Z,90.60
2018-04-01T19:59:13.917Z,90.80
2018-04-01T20:01:40.486Z,90.70
2018-04-01T20:04:08.162Z,90.60
2018-04-01T20:06:35.581Z,90.60
2018-04-01T20:09:04.612Z,90.60
2018-04-01T20:11:33.362Z,90.60
2018-04-01T20:14:01.790Z,90.30
2018-04-01T20:16:29.862Z,90.30
2018-04-01T20:19:00.298Z,90.40
2018-04-01T20:21:30.411Z,90.40
2018-04-01T20:23:58.300Z,90.60
2018-04-01T20:26:25.597Z,90.60
2018-04-01T20:29:08.995Z,90.80
2018-04-01T20:31:36.489Z,90.80
2018-04-01T20:34:03.163Z,90.60
2018-04-01T20:36:31.257Z,90.60
2018-04-01T20:38:59.421Z,90.60
2018-04-01T20:41:27.088Z,90.50
2018-04-01T20:43:54.495Z,90.50
2018-04-01T20:46:22.750Z,90.60
2018-04-01T20:48:49.440Z,90.60
2018-04-01T20:51:25.750Z,90.70
2018-04-01T20:53:53.214Z,90.70
2018-04-01T20:56:20.224Z,90.90
2018-04-01T20:58:47.774Z,90.70
2018-04-01T21:01:14.711Z,91.10
2018-04-01T21:03:41.873Z,90.70
2018-04-01T21:06:08.528Z,90.70
2018-04-01T21:08:39.472Z,90.80
2018-04-01T21:11:07.825Z,90.90
2018-04-01T21:13:35.154Z,90.90
2018-04-01T21:16:02.812Z,91.00
2018-04-01T21:18:47.543Z,91.00
2018-04-01T21:21:14.288Z,91.20
2018-04-01T21:23:41.879Z,91.30
2018-04-01T21:26:09.274Z,91.30
2018-04-01T21:28:36.387Z,91.30
2018-04-01T21:31:03.208Z,91.00
2018-04-01T21:33:31.087Z,90.30
2018-04-01T21:36:05.182Z,90.30
2018-04-01T21:38:32.342Z,90.30
2018-04-01T21:40:59.100Z,90.20
2018-04-01T21:43:26.346Z,90.00
2018-04-01T21:45:56.635Z,90.00
2018-04-01T21:48:24.172Z,90.00
2018-04-01T21:50:51.398Z,89.60
2018-04-01T21:53:18.603Z,89.60
2018-04-01T21:55:46.837Z,89.60
2018-04-01T21:58:49.139Z,89.30
2018-04-01T22:01:17.681Z,89.50
2018-04-01T22:03:48.111Z,89.50
2018-04-01T22:06:14.663Z,89.50
2018-04-01T22:08:41.818Z,89.80
2018-04-01T22:11:09.074Z,89.80
2018-04-01T22:13:35.621Z,89.80
2018-04-01T22:16:02.344Z,89.70
2018-04-01T22:21:07.930Z,89.90
2018-04-01T22:23:34.338Z,89.70
2018-04-01T22:26:00.840Z,90.20
2018-04-01T22:28:27.362Z,90.30
2018-04-01T22:30:54.193Z,90.30
2018-04-01T22:33:21.456Z,90.60
2018-04-01T22:35:48.054Z,90.50
2018-04-01T22:38:14.463Z,90.70
2018-04-01T22:40:54.905Z,90.80
2018-04-01T22:43:22.050Z,91.10
2018-04-01T22:45:48.474Z,91.10
2018-04-01T22:48:14.676Z,91.10
2018-04-01T22:50:40.853Z,91.10
2018-04-01T22:53:07.016Z,91.40
2018-04-01T22:55:33.202Z,91.50
2018-04-01T22:57:59.385Z,91.70
2018-04-01T23:00:25.565Z,91.60
2018-04-01T23:02:51.761Z,91.70
2018-04-01T23:05:18.679Z,91.70
2018-04-01T23:07:44.899Z,91.70
2018-04-01T23:10:11.147Z,91.80
2018-04-01T23:12:38.058Z,92.00
2018-04-01T23:15:04.256Z,92.00
2018-04-01T23:17:30.424Z,92.00
2018-04-01T23:19:56.657Z,92.10
2018-04-01T23:22:23.564Z,92.30
2018-04-01T23:24:49.759Z,92.30
2018-04-01T23:27:15.904Z,92.40
2018-04-01T23:29:42.073Z,92.60
2018-04-01T23:32:08.294Z,92.70
2018-04-01T23:34:34.492Z,92.70
2018-04-01T23:37:00.702Z,92.70
2018-04-01T23:39:26.884Z,92.80
2018-04-01T23:41:53.054Z,92.90
2018-04-01T23:44:19.470Z,93.00
2018-04-01T23:46:45.668Z,93.10
2018-04-01T23:49:11.850Z,93.20
2018-04-01T23:51:38.003Z,93.30
2018-04-01T23:54:04.184Z,93.40
2018-04-01T23:56:30.364Z,93.40
2018-04-01T23:58:56.549Z,93.20
